Flight Briefing for CPX772

Departure Arrival
Tallinn Airport (EETN)
Click to view FAA NOTAMS
Li├Ęge Airport (EBLG)
Click to view FAA NOTAMS
Departure Time Arrival Time
N/A N/A
Aircraft Distance
B767-300BDSF 856nm
Departure METAR Arrival METAR
EETN 180650Z 19006KT 160V220 CAVOK M02/M05 Q1022 R08/19//95 NOSIG EBLG 180620Z 15008KT 140V200 CAVOK 07/M02 Q1019 NOSIG
Suggested Route
TLL Q11 PIMEX P739 KOLJA M864 BUMIL OSB


View recent IFR Routes data
Notes



Charts and Procedures

Charts for EETN
No chart available
Charts for EBLG
No chart available

Ventusky Weather